sensor_id;sensor_type;location;lat;lon;timestamp;P1;durP1;ratioP1;P2;durP2;ratioP2
13057;SDS011;6595;49.578;11.012;2022-07-06T00:00:24;2.4;;;2.3;;
13057;SDS011;6595;49.578;11.012;2022-07-06T00:02:23;2.6;;;2.4;;
13057;SDS011;6595;49.578;11.012;2022-07-06T00:04:24;2.3;;;2.2;;
13057;SDS011;6595;49.578;11.012;2022-07-06T00:06:23;2.3;;;2.2;;
13057;SDS011;6595;49.578;11.012;2022-07-06T00:08:23;2.7;;;2.5;;
13057;SDS011;6595;49.578;11.012;2022-07-06T00:10:23;2.6;;;2.4;;
13057;SDS011;6595;49.578;11.012;2022-07-06T00:12:23;2.5;;;2.3;;
13057;SDS011;6595;49.578;11.012;2022-07-06T00:14:24;2.5;;;2.3;;
13057;SDS011;6595;49.578;11.012;2022-07-06T00:16:23;2.9;;;2.6;;
13057;SDS011;6595;49.578;11.012;2022-07-06T00:18:23;2.9;;;2.6;;
13057;SDS011;6595;49.578;11.012;2022-07-06T00:20:23;2.6;;;2.4;;
13057;SDS011;6595;49.578;11.012;2022-07-06T00:22:23;2.8;;;2.6;;
13057;SDS011;6595;49.578;11.012;2022-07-06T00:24:24;2.8;;;2.6;;
13057;SDS011;6595;49.578;11.012;2022-07-06T00:26:24;3.0;;;2.5;;
13057;SDS011;6595;49.578;11.012;2022-07-06T00:28:23;3.0;;;2.5;;
13057;SDS011;6595;49.578;11.012;2022-07-06T00:30:24;2.7;;;2.5;;
13057;SDS011;6595;49.578;11.012;2022-07-06T00:32:24;2.7;;;2.5;;
13057;SDS011;6595;49.578;11.012;2022-07-06T00:34:23;2.7;;;2.5;;
13057;SDS011;6595;49.578;11.012;2022-07-06T00:36:23;2.5;;;2.3;;
13057;SDS011;6595;49.578;11.012;2022-07-06T00:38:24;2.5;;;2.3;;
13057;SDS011;6595;49.578;11.012;2022-07-06T00:40:23;2.6;;;2.4;;
13057;SDS011;6595;49.578;11.012;2022-07-06T00:42:24;2.6;;;2.4;;
13057;SDS011;6595;49.578;11.012;2022-07-06T00:44:23;2.6;;;2.4;;
13057;SDS011;6595;49.578;11.012;2022-07-06T00:46:25;2.3;;;2.1;;
13057;SDS011;6595;49.578;11.012;2022-07-06T00:48:23;2.5;;;2.3;;
13057;SDS011;6595;49.578;11.012;2022-07-06T00:50:23;2.5;;;2.4;;
13057;SDS011;6595;49.578;11.012;2022-07-06T00:52:24;2.6;;;2.5;;
13057;SDS011;6595;49.578;11.012;2022-07-06T00:54:23;2.8;;;2.5;;
13057;SDS011;6595;49.578;11.012;2022-07-06T00:56:23;2.8;;;2.5;;
13057;SDS011;6595;49.578;11.012;2022-07-06T00:58:23;2.8;;;2.5;;
13057;SDS011;6595;49.578;11.012;2022-07-06T01:00:24;2.9;;;2.7;;
13057;SDS011;6595;49.578;11.012;2022-07-06T01:02:23;2.5;;;2.4;;
13057;SDS011;6595;49.578;11.012;2022-07-06T01:04:24;2.5;;;2.4;;
13057;SDS011;6595;49.578;11.012;2022-07-06T01:06:24;3.7;;;2.5;;
13057;SDS011;6595;49.578;11.012;2022-07-06T01:08:23;2.7;;;2.5;;
13057;SDS011;6595;49.578;11.012;2022-07-06T01:10:24;2.6;;;2.5;;
13057;SDS011;6595;49.578;11.012;2022-07-06T01:12:23;2.6;;;2.5;;
13057;SDS011;6595;49.578;11.012;2022-07-06T01:14:23;2.6;;;2.5;;
13057;SDS011;6595;49.578;11.012;2022-07-06T01:16:24;2.6;;;2.4;;
13057;SDS011;6595;49.578;11.012;2022-07-06T01:18:24;2.6;;;2.4;;
13057;SDS011;6595;49.578;11.012;2022-07-06T01:20:24;2.5;;;2.4;;
13057;SDS011;6595;49.578;11.012;2022-07-06T01:22:23;2.5;;;2.3;;
13057;SDS011;6595;49.578;11.012;2022-07-06T01:24:24;2.5;;;2.3;;
13057;SDS011;6595;49.578;11.012;2022-07-06T01:26:23;2.8;;;2.6;;
13057;SDS011;6595;49.578;11.012;2022-07-06T01:28:24;2.8;;;2.6;;
13057;SDS011;6595;49.578;11.012;2022-07-06T01:30:23;2.4;;;2.3;;
13057;SDS011;6595;49.578;11.012;2022-07-06T01:32:23;2.4;;;2.3;;
13057;SDS011;6595;49.578;11.012;2022-07-06T01:34:23;2.9;;;2.6;;
13057;SDS011;6595;49.578;11.012;2022-07-06T01:36:24;2.5;;;2.4;;
13057;SDS011;6595;49.578;11.012;2022-07-06T01:38:23;3.2;;;2.5;;
13057;SDS011;6595;49.578;11.012;2022-07-06T01:40:23;2.4;;;2.3;;
13057;SDS011;6595;49.578;11.012;2022-07-06T01:42:23;2.4;;;2.3;;
13057;SDS011;6595;49.578;11.012;2022-07-06T01:44:23;2.7;;;2.5;;
13057;SDS011;6595;49.578;11.012;2022-07-06T01:46:24;3.4;;;2.3;;
13057;SDS011;6595;49.578;11.012;2022-07-06T01:48:23;3.1;;;2.4;;
13057;SDS011;6595;49.578;11.012;2022-07-06T01:50:24;3.1;;;2.4;;
13057;SDS011;6595;49.578;11.012;2022-07-06T01:52:23;2.9;;;2.6;;
13057;SDS011;6595;49.578;11.012;2022-07-06T01:54:24;2.5;;;2.4;;
13057;SDS011;6595;49.578;11.012;2022-07-06T01:56:24;2.5;;;2.3;;
13057;SDS011;6595;49.578;11.012;2022-07-06T01:58:23;2.5;;;2.3;;
13057;SDS011;6595;49.578;11.012;2022-07-06T02:00:24;2.6;;;2.5;;
13057;SDS011;6595;49.578;11.012;2022-07-06T02:02:23;2.6;;;2.5;;
13057;SDS011;6595;49.578;11.012;2022-07-06T02:04:23;2.5;;;2.4;;
13057;SDS011;6595;49.578;11.012;2022-07-06T02:06:23;2.5;;;2.4;;
13057;SDS011;6595;49.578;11.012;2022-07-06T02:08:24;2.5;;;2.4;;
13057;SDS011;6595;49.578;11.012;2022-07-06T02:10:23;2.6;;;2.5;;
13057;SDS011;6595;49.578;11.012;2022-07-06T02:12:24;2.6;;;2.5;;
13057;SDS011;6595;49.578;11.012;2022-07-06T02:14:23;2.4;;;2.3;;
13057;SDS011;6595;49.578;11.012;2022-07-06T02:16:23;2.5;;;2.3;;
13057;SDS011;6595;49.578;11.012;2022-07-06T02:18:23;2.6;;;2.5;;
13057;SDS011;6595;49.578;11.012;2022-07-06T02:20:24;2.6;;;2.5;;
13057;SDS011;6595;49.578;11.012;2022-07-06T02:22:23;2.5;;;2.3;;
13057;SDS011;6595;49.578;11.012;2022-07-06T02:24:24;2.7;;;2.5;;
13057;SDS011;6595;49.578;11.012;2022-07-06T02:26:23;2.8;;;2.6;;
13057;SDS011;6595;49.578;11.012;2022-07-06T02:28:23;2.8;;;2.6;;
13057;SDS011;6595;49.578;11.012;2022-07-06T02:30:23;2.7;;;2.5;;
13057;SDS011;6595;49.578;11.012;2022-07-06T02:32:23;2.4;;;2.2;;
13057;SDS011;6595;49.578;11.012;2022-07-06T02:34:23;2.4;;;2.3;;
13057;SDS011;6595;49.578;11.012;2022-07-06T02:36:24;2.7;;;2.5;;
13057;SDS011;6595;49.578;11.012;2022-07-06T02:38:23;2.7;;;2.5;;
13057;SDS011;6595;49.578;11.012;2022-07-06T02:40:24;2.6;;;2.4;;
13057;SDS011;6595;49.578;11.012;2022-07-06T02:42:23;2.6;;;2.4;;
13057;SDS011;6595;49.578;11.012;2022-07-06T02:44:23;2.7;;;2.5;;
13057;SDS011;6595;49.578;11.012;2022-07-06T02:46:23;3.0;;;2.8;;
13057;SDS011;6595;49.578;11.012;2022-07-06T02:48:24;3.0;;;2.8;;
13057;SDS011;6595;49.578;11.012;2022-07-06T02:50:23;3.1;;;2.9;;
13057;SDS011;6595;49.578;11.012;2022-07-06T02:52:24;2.8;;;2.6;;
13057;SDS011;6595;49.578;11.012;2022-07-06T02:54:24;2.9;;;2.7;;
13057;SDS011;6595;49.578;11.012;2022-07-06T02:56:23;2.7;;;2.5;;
13057;SDS011;6595;49.578;11.012;2022-07-06T02:58:23;2.7;;;2.5;;
13057;SDS011;6595;49.578;11.012;2022-07-06T03:00:23;3.1;;;2.4;;
13057;SDS011;6595;49.578;11.012;2022-07-06T03:02:23;2.5;;;2.4;;
13057;SDS011;6595;49.578;11.012;2022-07-06T03:04:24;2.5;;;2.4;;
13057;SDS011;6595;49.578;11.012;2022-07-06T03:06:24;2.8;;;2.6;;
13057;SDS011;6595;49.578;11.012;2022-07-06T03:08:23;2.8;;;2.6;;
13057;SDS011;6595;49.578;11.012;2022-07-06T03:10:24;2.7;;;2.6;;
13057;SDS011;6595;49.578;11.012;2022-07-06T03:12:23;2.6;;;2.5;;
13057;SDS011;6595;49.578;11.012;2022-07-06T03:14:23;3.1;;;2.8;;
13057;SDS011;6595;49.578;11.012;2022-07-06T03:16:24;2.9;;;2.7;;
13057;SDS011;6595;49.578;11.012;2022-07-06T03:18:23;2.9;;;2.7;;
13057;SDS011;6595;49.578;11.012;2022-07-06T03:20:23;2.5;;;2.4;;
13057;SDS011;6595;49.578;11.012;2022-07-06T03:22:23;2.7;;;2.6;;
13057;SDS011;6595;49.578;11.012;2022-07-06T03:24:23;3.1;;;2.8;;
13057;SDS011;6595;49.578;11.012;2022-07-06T03:26:23;3.1;;;2.8;;
13057;SDS011;6595;49.578;11.012;2022-07-06T03:28:24;2.7;;;2.5;;
13057;SDS011;6595;49.578;11.012;2022-07-06T03:30:23;2.7;;;2.5;;
13057;SDS011;6595;49.578;11.012;2022-07-06T03:32:24;2.5;;;2.4;;
13057;SDS011;6595;49.578;11.012;2022-07-06T03:34:24;2.6;;;2.5;;
13057;SDS011;6595;49.578;11.012;2022-07-06T03:36:23;2.6;;;2.5;;
13057;SDS011;6595;49.578;11.012;2022-07-06T03:38:23;2.9;;;2.6;;
13057;SDS011;6595;49.578;11.012;2022-07-06T03:40:23;2.9;;;2.6;;
13057;SDS011;6595;49.578;11.012;2022-07-06T03:42:23;2.6;;;2.5;;
13057;SDS011;6595;49.578;11.012;2022-07-06T03:44:23;2.8;;;2.6;;
13057;SDS011;6595;49.578;11.012;2022-07-06T03:46:23;2.8;;;2.6;;
13057;SDS011;6595;49.578;11.012;2022-07-06T03:48:23;2.7;;;2.5;;
13057;SDS011;6595;49.578;11.012;2022-07-06T03:50:24;2.7;;;2.5;;
13057;SDS011;6595;49.578;11.012;2022-07-06T03:52:23;2.7;;;2.5;;
13057;SDS011;6595;49.578;11.012;2022-07-06T03:54:24;3.0;;;2.6;;
13057;SDS011;6595;49.578;11.012;2022-07-06T03:56:24;3.0;;;2.6;;
13057;SDS011;6595;49.578;11.012;2022-07-06T03:58:23;3.0;;;2.8;;
13057;SDS011;6595;49.578;11.012;2022-07-06T04:00:24;3.3;;;3.0;;
13057;SDS011;6595;49.578;11.012;2022-07-06T04:02:24;2.8;;;2.6;;
13057;SDS011;6595;49.578;11.012;2022-07-06T04:04:23;3.0;;;2.7;;
13057;SDS011;6595;49.578;11.012;2022-07-06T04:06:23;2.9;;;2.7;;
13057;SDS011;6595;49.578;11.012;2022-07-06T04:08:24;2.9;;;2.7;;
13057;SDS011;6595;49.578;11.012;2022-07-06T04:10:23;3.0;;;2.7;;
13057;SDS011;6595;49.578;11.012;2022-07-06T04:12:24;2.9;;;2.7;;
13057;SDS011;6595;49.578;11.012;2022-07-06T04:14:23;3.6;;;3.3;;
13057;SDS011;6595;49.578;11.012;2022-07-06T04:16:23;3.6;;;3.3;;
13057;SDS011;6595;49.578;11.012;2022-07-06T04:18:23;4.0;;;2.8;;
13057;SDS011;6595;49.578;11.012;2022-07-06T04:20:24;5.1;;;2.6;;
13057;SDS011;6595;49.578;11.012;2022-07-06T04:22:23;3.1;;;2.9;;
13057;SDS011;6595;49.578;11.012;2022-07-06T04:24:23;2.8;;;2.7;;
13057;SDS011;6595;49.578;11.012;2022-07-06T04:26:23;2.8;;;2.7;;
13057;SDS011;6595;49.578;11.012;2022-07-06T04:28:24;2.7;;;2.5;;
13057;SDS011;6595;49.578;11.012;2022-07-06T04:30:24;2.7;;;2.5;;
13057;SDS011;6595;49.578;11.012;2022-07-06T04:32:23;2.6;;;2.5;;
13057;SDS011;6595;49.578;11.012;2022-07-06T04:34:23;2.6;;;2.5;;
13057;SDS011;6595;49.578;11.012;2022-07-06T04:36:24;2.6;;;2.4;;
13057;SDS011;6595;49.578;11.012;2022-07-06T04:38:23;2.7;;;2.5;;
13057;SDS011;6595;49.578;11.012;2022-07-06T04:40:24;2.7;;;2.5;;
13057;SDS011;6595;49.578;11.012;2022-07-06T04:42:23;3.6;;;2.7;;
13057;SDS011;6595;49.578;11.012;2022-07-06T04:44:24;3.6;;;2.7;;
13057;SDS011;6595;49.578;11.012;2022-07-06T04:46:24;2.5;;;2.4;;
13057;SDS011;6595;49.578;11.012;2022-07-06T04:48:24;2.5;;;2.4;;
13057;SDS011;6595;49.578;11.012;2022-07-06T04:50:23;2.7;;;2.5;;
13057;SDS011;6595;49.578;11.012;2022-07-06T04:52:24;2.8;;;2.6;;
13057;SDS011;6595;49.578;11.012;2022-07-06T04:54:23;2.8;;;2.6;;
13057;SDS011;6595;49.578;11.012;2022-07-06T04:56:23;2.6;;;2.4;;
13057;SDS011;6595;49.578;11.012;2022-07-06T04:58:24;2.7;;;2.5;;
13057;SDS011;6595;49.578;11.012;2022-07-06T05:00:23;2.6;;;2.4;;
13057;SDS011;6595;49.578;11.012;2022-07-06T05:02:23;2.6;;;2.4;;
13057;SDS011;6595;49.578;11.012;2022-07-06T05:04:23;2.4;;;2.3;;
13057;SDS011;6595;49.578;11.012;2022-07-06T05:06:24;2.4;;;2.3;;
13057;SDS011;6595;49.578;11.012;2022-07-06T05:08:23;2.8;;;2.4;;
13057;SDS011;6595;49.578;11.012;2022-07-06T05:10:23;2.6;;;2.4;;
13057;SDS011;6595;49.578;11.012;2022-07-06T05:12:23;2.6;;;2.4;;
13057;SDS011;6595;49.578;11.012;2022-07-06T05:16:24;3.7;;;2.4;;
13057;SDS011;6595;49.578;11.012;2022-07-06T05:18:24;2.6;;;2.3;;
13057;SDS011;6595;49.578;11.012;2022-07-06T05:20:23;2.4;;;2.3;;
13057;SDS011;6595;49.578;11.012;2022-07-06T05:22:24;2.4;;;2.3;;
13057;SDS011;6595;49.578;11.012;2022-07-06T05:24:23;2.8;;;2.6;;
13057;SDS011;6595;49.578;11.012;2022-07-06T05:26:23;2.8;;;2.6;;
13057;SDS011;6595;49.578;11.012;2022-07-06T05:28:24;2.6;;;2.4;;
13057;SDS011;6595;49.578;11.012;2022-07-06T05:30:23;2.5;;;2.3;;
13057;SDS011;6595;49.578;11.012;2022-07-06T05:32:24;2.5;;;2.3;;
13057;SDS011;6595;49.578;11.012;2022-07-06T05:34:24;2.3;;;2.2;;
13057;SDS011;6595;49.578;11.012;2022-07-06T05:36:24;2.6;;;2.4;;
13057;SDS011;6595;49.578;11.012;2022-07-06T05:38:23;2.6;;;2.3;;
13057;SDS011;6595;49.578;11.012;2022-07-06T05:40:24;2.1;;;2.0;;
13057;SDS011;6595;49.578;11.012;2022-07-06T05:42:23;2.1;;;2.0;;
13057;SDS011;6595;49.578;11.012;2022-07-06T05:44:24;2.3;;;2.2;;
13057;SDS011;6595;49.578;11.012;2022-07-06T05:46:24;2.3;;;2.2;;
13057;SDS011;6595;49.578;11.012;2022-07-06T05:48:24;2.9;;;2.1;;
13057;SDS011;6595;49.578;11.012;2022-07-06T05:50:23;2.2;;;2.1;;
13057;SDS011;6595;49.578;11.012;2022-07-06T05:52:24;2.2;;;2.1;;
13057;SDS011;6595;49.578;11.012;2022-07-06T05:54:23;2.7;;;2.0;;
13057;SDS011;6595;49.578;11.012;2022-07-06T05:56:23;2.3;;;2.2;;
13057;SDS011;6595;49.578;11.012;2022-07-06T05:58:24;2.5;;;2.3;;
13057;SDS011;6595;49.578;11.012;2022-07-06T06:00:23;2.5;;;2.3;;
13057;SDS011;6595;49.578;11.012;2022-07-06T06:02:24;2.1;;;2.0;;
13057;SDS011;6595;49.578;11.012;2022-07-06T06:04:24;2.1;;;2.0;;
13057;SDS011;6595;49.578;11.012;2022-07-06T06:06:24;2.1;;;1.9;;
13057;SDS011;6595;49.578;11.012;2022-07-06T06:08:23;2.0;;;1.9;;
13057;SDS011;6595;49.578;11.012;2022-07-06T06:10:24;2.2;;;2.1;;
13057;SDS011;6595;49.578;11.012;2022-07-06T06:12:23;2.2;;;2.1;;
13057;SDS011;6595;49.578;11.012;2022-07-06T06:14:23;2.4;;;2.1;;
13057;SDS011;6595;49.578;11.012;2022-07-06T06:16:23;4.3;;;2.0;;
13057;SDS011;6595;49.578;11.012;2022-07-06T06:18:23;2.4;;;1.9;;
13057;SDS011;6595;49.578;11.012;2022-07-06T06:20:23;2.7;;;2.5;;
13057;SDS011;6595;49.578;11.012;2022-07-06T06:22:24;2.7;;;2.5;;
13057;SDS011;6595;49.578;11.012;2022-07-06T06:24:23;2.8;;;2.3;;
13057;SDS011;6595;49.578;11.012;2022-07-06T06:26:23;2.7;;;2.1;;
13057;SDS011;6595;49.578;11.012;2022-07-06T06:28:23;2.5;;;2.4;;
13057;SDS011;6595;49.578;11.012;2022-07-06T06:30:23;2.5;;;2.4;;
13057;SDS011;6595;49.578;11.012;2022-07-06T06:32:24;2.3;;;2.1;;
13057;SDS011;6595;49.578;11.012;2022-07-06T06:34:24;2.3;;;2.1;;
13057;SDS011;6595;49.578;11.012;2022-07-06T06:36:23;2.5;;;2.0;;
13057;SDS011;6595;49.578;11.012;2022-07-06T06:38:24;2.2;;;2.0;;
13057;SDS011;6595;49.578;11.012;2022-07-06T06:40:24;2.2;;;2.0;;
13057;SDS011;6595;49.578;11.012;2022-07-06T06:42:23;2.6;;;2.2;;
13057;SDS011;6595;49.578;11.012;2022-07-06T06:44:24;2.3;;;2.1;;
13057;SDS011;6595;49.578;11.012;2022-07-06T06:46:23;2.2;;;2.0;;
13057;SDS011;6595;49.578;11.012;2022-07-06T06:48:23;2.2;;;2.0;;
13057;SDS011;6595;49.578;11.012;2022-07-06T06:50:23;2.2;;;2.0;;
13057;SDS011;6595;49.578;11.012;2022-07-06T06:52:23;1.6;;;1.6;;
13057;SDS011;6595;49.578;11.012;2022-07-06T06:54:24;2.4;;;2.2;;
13057;SDS011;6595;49.578;11.012;2022-07-06T06:56:24;2.1;;;2.0;;
13057;SDS011;6595;49.578;11.012;2022-07-06T06:58:23;2.1;;;2.0;;
13057;SDS011;6595;49.578;11.012;2022-07-06T07:00:23;1.9;;;1.8;;
13057;SDS011;6595;49.578;11.012;2022-07-06T07:02:23;2.1;;;2.0;;
13057;SDS011;6595;49.578;11.012;2022-07-06T07:04:23;2.1;;;2.0;;
13057;SDS011;6595;49.578;11.012;2022-07-06T07:06:24;2.9;;;2.7;;
13057;SDS011;6595;49.578;11.012;2022-07-06T07:08:23;1.9;;;1.8;;
13057;SDS011;6595;49.578;11.012;2022-07-06T07:10:24;1.9;;;1.8;;
13057;SDS011;6595;49.578;11.012;2022-07-06T07:12:23;2.5;;;1.8;;
13057;SDS011;6595;49.578;11.012;2022-07-06T07:14:23;7.1;;;2.2;;
13057;SDS011;6595;49.578;11.012;2022-07-06T07:16:23;3.3;;;2.1;;
13057;SDS011;6595;49.578;11.012;2022-07-06T07:18:24;3.3;;;2.1;;
13057;SDS011;6595;49.578;11.012;2022-07-06T07:20:23;2.0;;;1.9;;
13057;SDS011;6595;49.578;11.012;2022-07-06T07:22:23;2.6;;;2.0;;
13057;SDS011;6595;49.578;11.012;2022-07-06T07:24:24;1.7;;;1.7;;
13057;SDS011;6595;49.578;11.012;2022-07-06T07:26:23;2.0;;;1.7;;
13057;SDS011;6595;49.578;11.012;2022-07-06T07:28:24;2.0;;;1.7;;
13057;SDS011;6595;49.578;11.012;2022-07-06T07:30:23;5.8;;;1.9;;
13057;SDS011;6595;49.578;11.012;2022-07-06T07:32:23;2.1;;;1.8;;
13057;SDS011;6595;49.578;11.012;2022-07-06T07:34:23;3.1;;;1.9;;
13057;SDS011;6595;49.578;11.012;2022-07-06T07:36:23;3.1;;;1.9;;
13057;SDS011;6595;49.578;11.012;2022-07-06T07:38:23;1.6;;;1.5;;
13057;SDS011;6595;49.578;11.012;2022-07-06T07:40:24;3.6;;;1.7;;
13057;SDS011;6595;49.578;11.012;2022-07-06T07:42:23;3.0;;;1.8;;
13057;SDS011;6595;49.578;11.012;2022-07-06T07:44:24;3.8;;;1.8;;
13057;SDS011;6595;49.578;11.012;2022-07-06T07:46:24;3.8;;;1.8;;
13057;SDS011;6595;49.578;11.012;2022-07-06T07:48:24;2.2;;;1.9;;
13057;SDS011;6595;49.578;11.012;2022-07-06T07:50:23;2.2;;;1.9;;
13057;SDS011;6595;49.578;11.012;2022-07-06T07:52:24;2.6;;;2.0;;
13057;SDS011;6595;49.578;11.012;2022-07-06T07:54:23;2.6;;;2.0;;
13057;SDS011;6595;49.578;11.012;2022-07-06T07:56:23;2.0;;;1.9;;
13057;SDS011;6595;49.578;11.012;2022-07-06T07:58:23;2.0;;;1.9;;
13057;SDS011;6595;49.578;11.012;2022-07-06T08:00:23;5.5;;;2.3;;
13057;SDS011;6595;49.578;11.012;2022-07-06T08:02:24;2.1;;;1.9;;
13057;SDS011;6595;49.578;11.012;2022-07-06T08:04:24;1.8;;;1.7;;
13057;SDS011;6595;49.578;11.012;2022-07-06T08:06:23;3.1;;;1.9;;
13057;SDS011;6595;49.578;11.012;2022-07-06T08:08:24;3.1;;;1.9;;
13057;SDS011;6595;49.578;11.012;2022-07-06T08:10:23;2.0;;;1.9;;
13057;SDS011;6595;49.578;11.012;2022-07-06T08:12:23;1.7;;;1.6;;
13057;SDS011;6595;49.578;11.012;2022-07-06T08:14:23;3.1;;;1.7;;
13057;SDS011;6595;49.578;11.012;2022-07-06T08:16:23;3.1;;;1.7;;
13057;SDS011;6595;49.578;11.012;2022-07-06T08:18:23;1.9;;;1.8;;
13057;SDS011;6595;49.578;11.012;2022-07-06T08:20:23;2.2;;;1.8;;
13057;SDS011;6595;49.578;11.012;2022-07-06T08:22:24;2.0;;;1.9;;
13057;SDS011;6595;49.578;11.012;2022-07-06T08:24:23;1.8;;;1.7;;
13057;SDS011;6595;49.578;11.012;2022-07-06T08:26:24;1.8;;;1.7;;
13057;SDS011;6595;49.578;11.012;2022-07-06T08:28:23;1.8;;;1.7;;
13057;SDS011;6595;49.578;11.012;2022-07-06T08:30:24;1.7;;;1.6;;
13057;SDS011;6595;49.578;11.012;2022-07-06T08:32:23;1.8;;;1.6;;
13057;SDS011;6595;49.578;11.012;2022-07-06T08:34:23;1.8;;;1.6;;
13057;SDS011;6595;49.578;11.012;2022-07-06T08:36:24;2.9;;;1.7;;
13057;SDS011;6595;49.578;11.012;2022-07-06T08:38:23;3.1;;;2.0;;
13057;SDS011;6595;49.578;11.012;2022-07-06T08:40:24;2.6;;;1.9;;
13057;SDS011;6595;49.578;11.012;2022-07-06T08:42:23;2.6;;;1.9;;
13057;SDS011;6595;49.578;11.012;2022-07-06T08:44:23;1.8;;;1.7;;
13057;SDS011;6595;49.578;11.012;2022-07-06T08:46:23;2.3;;;2.0;;
13057;SDS011;6595;49.578;11.012;2022-07-06T08:48:23;5.5;;;1.9;;
13057;SDS011;6595;49.578;11.012;2022-07-06T08:50:24;1.9;;;1.6;;
13057;SDS011;6595;49.578;11.012;2022-07-06T08:52:23;2.4;;;1.6;;
13057;SDS011;6595;49.578;11.012;2022-07-06T08:54:24;2.4;;;1.6;;
13057;SDS011;6595;49.578;11.012;2022-07-06T08:56:24;1.7;;;1.6;;
13057;SDS011;6595;49.578;11.012;2022-07-06T08:58:23;1.5;;;1.4;;
13057;SDS011;6595;49.578;11.012;2022-07-06T09:00:24;1.5;;;1.4;;
13057;SDS011;6595;49.578;11.012;2022-07-06T09:02:24;1.4;;;1.4;;
13057;SDS011;6595;49.578;11.012;2022-07-06T09:04:23;3.8;;;1.5;;
13057;SDS011;6595;49.578;11.012;2022-07-06T09:06:24;3.8;;;1.5;;
13057;SDS011;6595;49.578;11.012;2022-07-06T09:08:24;2.2;;;1.5;;
13057;SDS011;6595;49.578;11.012;2022-07-06T09:10:23;2.2;;;1.5;;
13057;SDS011;6595;49.578;11.012;2022-07-06T09:12:25;2.1;;;1.8;;
13057;SDS011;6595;49.578;11.012;2022-07-06T09:14:23;2.1;;;1.8;;
13057;SDS011;6595;49.578;11.012;2022-07-06T09:16:25;1.8;;;1.7;;
13057;SDS011;6595;49.578;11.012;2022-07-06T09:18:24;1.7;;;1.7;;
13057;SDS011;6595;49.578;11.012;2022-07-06T09:20:23;2.9;;;1.7;;
13057;SDS011;6595;49.578;11.012;2022-07-06T09:22:25;2.9;;;1.7;;
13057;SDS011;6595;49.578;11.012;2022-07-06T09:24:24;1.7;;;1.6;;
13057;SDS011;6595;49.578;11.012;2022-07-06T09:26:24;4.4;;;1.9;;
13057;SDS011;6595;49.578;11.012;2022-07-06T09:28:25;2.3;;;1.8;;
13057;SDS011;6595;49.578;11.012;2022-07-06T09:30:24;1.7;;;1.6;;
13057;SDS011;6595;49.578;11.012;2022-07-06T09:32:23;1.7;;;1.6;;
13057;SDS011;6595;49.578;11.012;2022-07-06T09:34:23;3.5;;;1.8;;
13057;SDS011;6595;49.578;11.012;2022-07-06T09:38:24;1.7;;;1.6;;
13057;SDS011;6595;49.578;11.012;2022-07-06T09:40:23;3.6;;;1.5;;
13057;SDS011;6595;49.578;11.012;2022-07-06T09:42:24;3.6;;;1.5;;
13057;SDS011;6595;49.578;11.012;2022-07-06T09:44:24;1.7;;;1.6;;
13057;SDS011;6595;49.578;11.012;2022-07-06T09:46:23;1.7;;;1.6;;
13057;SDS011;6595;49.578;11.012;2022-07-06T09:48:24;2.0;;;1.7;;
13057;SDS011;6595;49.578;11.012;2022-07-06T09:50:24;1.7;;;1.6;;
13057;SDS011;6595;49.578;11.012;2022-07-06T09:52:23;1.7;;;1.6;;
13057;SDS011;6595;49.578;11.012;2022-07-06T09:54:23;2.0;;;1.9;;
13057;SDS011;6595;49.578;11.012;2022-07-06T09:56:24;2.4;;;2.0;;
13057;SDS011;6595;49.578;11.012;2022-07-06T09:58:24;1.8;;;1.7;;
13057;SDS011;6595;49.578;11.012;2022-07-06T10:00:24;1.8;;;1.7;;
13057;SDS011;6595;49.578;11.012;2022-07-06T10:02:23;2.0;;;1.9;;
13057;SDS011;6595;49.578;11.012;2022-07-06T10:04:24;2.7;;;1.7;;
13057;SDS011;6595;49.578;11.012;2022-07-06T10:06:23;1.7;;;1.6;;
13057;SDS011;6595;49.578;11.012;2022-07-06T10:08:24;3.0;;;1.9;;
13057;SDS011;6595;49.578;11.012;2022-07-06T10:10:24;3.0;;;1.9;;
13057;SDS011;6595;49.578;11.012;2022-07-06T10:12:23;2.0;;;1.9;;
13057;SDS011;6595;49.578;11.012;2022-07-06T10:14:24;2.0;;;1.9;;
13057;SDS011;6595;49.578;11.012;2022-07-06T10:16:24;1.7;;;1.7;;
13057;SDS011;6595;49.578;11.012;2022-07-06T10:18:23;1.8;;;1.7;;
13057;SDS011;6595;49.578;11.012;2022-07-06T10:20:23;1.8;;;1.7;;
13057;SDS011;6595;49.578;11.012;2022-07-06T10:22:23;2.8;;;1.8;;
13057;SDS011;6595;49.578;11.012;2022-07-06T10:24:24;1.8;;;1.7;;
13057;SDS011;6595;49.578;11.012;2022-07-06T10:26:23;1.8;;;1.7;;
13057;SDS011;6595;49.578;11.012;2022-07-06T10:28:24;1.9;;;1.7;;
13057;SDS011;6595;49.578;11.012;2022-07-06T10:30:24;1.9;;;1.7;;
13057;SDS011;6595;49.578;11.012;2022-07-06T10:32:23;1.8;;;1.7;;
13057;SDS011;6595;49.578;11.012;2022-07-06T10:34:23;2.0;;;1.7;;
13057;SDS011;6595;49.578;11.012;2022-07-06T10:36:24;1.9;;;1.7;;
13057;SDS011;6595;49.578;11.012;2022-07-06T10:38:29;2.2;;;1.6;;
13057;SDS011;6595;49.578;11.012;2022-07-06T10:40:31;1.9;;;1.7;;
13057;SDS011;6595;49.578;11.012;2022-07-06T10:44:24;1.8;;;1.7;;
13057;SDS011;6595;49.578;11.012;2022-07-06T10:46:24;1.8;;;1.7;;
13057;SDS011;6595;49.578;11.012;2022-07-06T10:48:23;2.1;;;1.6;;
13057;SDS011;6595;49.578;11.012;2022-07-06T10:50:24;2.1;;;1.6;;
13057;SDS011;6595;49.578;11.012;2022-07-06T10:52:23;1.8;;;1.7;;
13057;SDS011;6595;49.578;11.012;2022-07-06T10:54:24;2.0;;;1.8;;
13057;SDS011;6595;49.578;11.012;2022-07-06T10:56:31;1.8;;;1.7;;
13057;SDS011;6595;49.578;11.012;2022-07-06T11:00:23;2.3;;;2.0;;
13057;SDS011;6595;49.578;11.012;2022-07-06T11:02:23;2.1;;;2.0;;
13057;SDS011;6595;49.578;11.012;2022-07-06T11:04:23;2.0;;;1.8;;
13057;SDS011;6595;49.578;11.012;2022-07-06T11:06:24;1.7;;;1.6;;
13057;SDS011;6595;49.578;11.012;2022-07-06T11:08:27;1.7;;;1.6;;
13057;SDS011;6595;49.578;11.012;2022-07-06T11:10:23;2.5;;;1.7;;
13057;SDS011;6595;49.578;11.012;2022-07-06T11:12:24;2.5;;;1.7;;
13057;SDS011;6595;49.578;11.012;2022-07-06T11:14:23;3.3;;;1.7;;
13057;SDS011;6595;49.578;11.012;2022-07-06T11:16:24;2.1;;;1.8;;
13057;SDS011;6595;49.578;11.012;2022-07-06T11:18:23;2.1;;;1.8;;
13057;SDS011;6595;49.578;11.012;2022-07-06T11:20:23;2.1;;;1.8;;
13057;SDS011;6595;49.578;11.012;2022-07-06T11:22:24;1.7;;;1.6;;
13057;SDS011;6595;49.578;11.012;2022-07-06T11:24:24;1.5;;;1.4;;
13057;SDS011;6595;49.578;11.012;2022-07-06T11:26:24;1.6;;;1.5;;
13057;SDS011;6595;49.578;11.012;2022-07-06T11:28:23;2.8;;;1.7;;
13057;SDS011;6595;49.578;11.012;2022-07-06T11:30:24;2.8;;;1.7;;
13057;SDS011;6595;49.578;11.012;2022-07-06T11:32:24;1.6;;;1.5;;
13057;SDS011;6595;49.578;11.012;2022-07-06T11:34:24;1.7;;;1.6;;
13057;SDS011;6595;49.578;11.012;2022-07-06T11:36:24;1.5;;;1.4;;
13057;SDS011;6595;49.578;11.012;2022-07-06T11:38:25;1.5;;;1.4;;
13057;SDS011;6595;49.578;11.012;2022-07-06T11:40:23;1.7;;;1.6;;
13057;SDS011;6595;49.578;11.012;2022-07-06T11:42:23;2.2;;;1.6;;
13057;SDS011;6595;49.578;11.012;2022-07-06T11:44:23;2.2;;;1.6;;
13057;SDS011;6595;49.578;11.012;2022-07-06T11:46:24;1.7;;;1.6;;
13057;SDS011;6595;49.578;11.012;2022-07-06T11:48:24;2.2;;;1.6;;
13057;SDS011;6595;49.578;11.012;2022-07-06T11:50:23;2.2;;;1.6;;
13057;SDS011;6595;49.578;11.012;2022-07-06T11:52:23;1.7;;;1.6;;
13057;SDS011;6595;49.578;11.012;2022-07-06T11:54:24;1.4;;;1.4;;
13057;SDS011;6595;49.578;11.012;2022-07-06T11:56:23;1.6;;;1.5;;
13057;SDS011;6595;49.578;11.012;2022-07-06T11:58:24;1.6;;;1.5;;
13057;SDS011;6595;49.578;11.012;2022-07-06T12:00:23;1.6;;;1.5;;
13057;SDS011;6595;49.578;11.012;2022-07-06T12:02:23;1.5;;;1.3;;
13057;SDS011;6595;49.578;11.012;2022-07-06T12:04:23;1.7;;;1.6;;
13057;SDS011;6595;49.578;11.012;2022-07-06T12:06:24;2.3;;;1.6;;
13057;SDS011;6595;49.578;11.012;2022-07-06T12:08:23;2.3;;;1.6;;
13057;SDS011;6595;49.578;11.012;2022-07-06T12:10:30;1.8;;;1.6;;
13057;SDS011;6595;49.578;11.012;2022-07-06T12:12:23;7.9;;;1.9;;
13057;SDS011;6595;49.578;11.012;2022-07-06T12:14:23;1.9;;;1.3;;
13057;SDS011;6595;49.578;11.012;2022-07-06T12:16:28;1.4;;;1.3;;
13057;SDS011;6595;49.578;11.012;2022-07-06T12:20:23;1.6;;;1.5;;
13057;SDS011;6595;49.578;11.012;2022-07-06T12:22:24;1.7;;;1.6;;
13057;SDS011;6595;49.578;11.012;2022-07-06T12:24:24;1.6;;;1.4;;
13057;SDS011;6595;49.578;11.012;2022-07-06T12:26:25;1.6;;;1.4;;
13057;SDS011;6595;49.578;11.012;2022-07-06T12:28:23;1.4;;;1.3;;
13057;SDS011;6595;49.578;11.012;2022-07-06T12:30:24;1.5;;;1.4;;
13057;SDS011;6595;49.578;11.012;2022-07-06T12:32:23;1.7;;;1.2;;
13057;SDS011;6595;49.578;11.012;2022-07-06T12:34:24;1.4;;;1.3;;